sensor_id;sensor_type;location;lat;lon;timestamp;temperature;humidity
60848;DHT22;46681;47.696;9.140;2023-04-24T00:02:13;14.70;63.00
60848;DHT22;46681;47.696;9.140;2023-04-24T00:04:38;14.70;63.10
60848;DHT22;46681;47.696;9.140;2023-04-24T00:07:07;14.70;63.20
60848;DHT22;46681;47.696;9.140;2023-04-24T00:09:35;14.70;63.20
60848;DHT22;46681;47.696;9.140;2023-04-24T00:12:02;14.70;63.20
60848;DHT22;46681;47.696;9.140;2023-04-24T00:14:29;14.60;63.10
60848;DHT22;46681;47.696;9.140;2023-04-24T00:16:55;14.70;63.30
60848;DHT22;46681;47.696;9.140;2023-04-24T00:19:20;14.70;63.30
60848;DHT22;46681;47.696;9.140;2023-04-24T00:21:48;14.70;63.20
60848;DHT22;46681;47.696;9.140;2023-04-24T00:24:14;14.70;63.30
60848;DHT22;46681;47.696;9.140;2023-04-24T00:26:43;14.60;63.20
60848;DHT22;46681;47.696;9.140;2023-04-24T00:29:09;14.60;63.20
60848;DHT22;46681;47.696;9.140;2023-04-24T00:31:34;14.60;63.00
60848;DHT22;46681;47.696;9.140;2023-04-24T00:34:03;14.60;63.30
60848;DHT22;46681;47.696;9.140;2023-04-24T00:36:30;14.60;63.30
60848;DHT22;46681;47.696;9.140;2023-04-24T00:38:59;14.60;63.40
60848;DHT22;46681;47.696;9.140;2023-04-24T00:41:25;14.50;63.30
60848;DHT22;46681;47.696;9.140;2023-04-24T00:43:51;14.50;63.20
60848;DHT22;46681;47.696;9.140;2023-04-24T00:46:17;14.50;63.40
60848;DHT22;46681;47.696;9.140;2023-04-24T00:48:43;14.50;63.80
60848;DHT22;46681;47.696;9.140;2023-04-24T00:51:09;14.50;63.30
60848;DHT22;46681;47.696;9.140;2023-04-24T00:53:34;14.50;63.40
60848;DHT22;46681;47.696;9.140;2023-04-24T00:56:00;14.50;63.50
60848;DHT22;46681;47.696;9.140;2023-04-24T00:58:26;14.40;63.40
60848;DHT22;46681;47.696;9.140;2023-04-24T01:00:51;14.40;63.40
60848;DHT22;46681;47.696;9.140;2023-04-24T01:03:17;14.40;63.40
60848;DHT22;46681;47.696;9.140;2023-04-24T01:05:43;14.40;63.50
60848;DHT22;46681;47.696;9.140;2023-04-24T01:08:09;14.40;63.40
60848;DHT22;46681;47.696;9.140;2023-04-24T01:10:35;14.40;63.60
60848;DHT22;46681;47.696;9.140;2023-04-24T01:13:01;14.40;63.40
60848;DHT22;46681;47.696;9.140;2023-04-24T01:15:27;14.40;63.30
60848;DHT22;46681;47.696;9.140;2023-04-24T01:17:53;14.40;63.40
60848;DHT22;46681;47.696;9.140;2023-04-24T01:20:20;14.40;63.40
60848;DHT22;46681;47.696;9.140;2023-04-24T01:22:48;14.30;63.20
60848;DHT22;46681;47.696;9.140;2023-04-24T01:25:14;14.30;63.30
60848;DHT22;46681;47.696;9.140;2023-04-24T01:27:42;14.30;63.40
60848;DHT22;46681;47.696;9.140;2023-04-24T01:30:08;14.30;63.30
60848;DHT22;46681;47.696;9.140;2023-04-24T01:32:34;14.30;63.50
60848;DHT22;46681;47.696;9.140;2023-04-24T01:35:00;14.30;63.50
60848;DHT22;46681;47.696;9.140;2023-04-24T01:37:26;14.30;63.60
60848;DHT22;46681;47.696;9.140;2023-04-24T01:39:51;14.20;63.30
60848;DHT22;46681;47.696;9.140;2023-04-24T01:42:17;14.20;63.30
60848;DHT22;46681;47.696;9.140;2023-04-24T01:44:43;14.20;63.50
60848;DHT22;46681;47.696;9.140;2023-04-24T01:47:10;14.20;63.40
60848;DHT22;46681;47.696;9.140;2023-04-24T01:49:38;14.20;63.40
60848;DHT22;46681;47.696;9.140;2023-04-24T01:52:04;14.20;63.20
60848;DHT22;46681;47.696;9.140;2023-04-24T01:54:29;14.20;63.20
60848;DHT22;46681;47.696;9.140;2023-04-24T01:56:55;14.10;63.00
60848;DHT22;46681;47.696;9.140;2023-04-24T01:59:21;14.10;63.20
60848;DHT22;46681;47.696;9.140;2023-04-24T02:01:50;14.10;63.40
60848;DHT22;46681;47.696;9.140;2023-04-24T02:04:15;14.10;63.20
60848;DHT22;46681;47.696;9.140;2023-04-24T02:06:42;14.10;63.30
60848;DHT22;46681;47.696;9.140;2023-04-24T02:09:08;14.10;63.40
60848;DHT22;46681;47.696;9.140;2023-04-24T02:11:33;14.10;63.10
60848;DHT22;46681;47.696;9.140;2023-04-24T02:13:59;14.10;63.00
60848;DHT22;46681;47.696;9.140;2023-04-24T02:16:24;14.00;63.30
60848;DHT22;46681;47.696;9.140;2023-04-24T02:18:50;14.00;63.10
60848;DHT22;46681;47.696;9.140;2023-04-24T02:21:15;14.00;63.20
60848;DHT22;46681;47.696;9.140;2023-04-24T02:23:43;14.00;63.00
60848;DHT22;46681;47.696;9.140;2023-04-24T02:26:09;14.00;63.30
60848;DHT22;46681;47.696;9.140;2023-04-24T02:28:35;14.00;63.30
60848;DHT22;46681;47.696;9.140;2023-04-24T02:31:01;13.90;63.10
60848;DHT22;46681;47.696;9.140;2023-04-24T02:33:26;13.90;63.20
60848;DHT22;46681;47.696;9.140;2023-04-24T02:35:52;13.90;62.90
60848;DHT22;46681;47.696;9.140;2023-04-24T02:38:17;13.90;63.00
60848;DHT22;46681;47.696;9.140;2023-04-24T02:40:43;13.90;63.60
60848;DHT22;46681;47.696;9.140;2023-04-24T02:43:08;13.90;63.20
60848;DHT22;46681;47.696;9.140;2023-04-24T02:45:34;13.90;63.20
60848;DHT22;46681;47.696;9.140;2023-04-24T02:47:59;13.90;63.30
60848;DHT22;46681;47.696;9.140;2023-04-24T02:50:27;13.90;63.10
60848;DHT22;46681;47.696;9.140;2023-04-24T02:52:55;13.80;63.10
60848;DHT22;46681;47.696;9.140;2023-04-24T02:55:21;13.80;63.20
60848;DHT22;46681;47.696;9.140;2023-04-24T02:57:47;13.80;63.30
60848;DHT22;46681;47.696;9.140;2023-04-24T03:00:14;13.80;63.20
60848;DHT22;46681;47.696;9.140;2023-04-24T03:02:40;13.80;63.20
60848;DHT22;46681;47.696;9.140;2023-04-24T03:05:05;13.80;63.30
60848;DHT22;46681;47.696;9.140;2023-04-24T03:07:31;13.80;63.20
60848;DHT22;46681;47.696;9.140;2023-04-24T03:09:56;13.80;63.80
60848;DHT22;46681;47.696;9.140;2023-04-24T03:12:22;13.80;63.50
60848;DHT22;46681;47.696;9.140;2023-04-24T03:14:47;13.80;63.50
60848;DHT22;46681;47.696;9.140;2023-04-24T03:17:13;13.80;63.50
60848;DHT22;46681;47.696;9.140;2023-04-24T03:19:38;13.70;63.40
60848;DHT22;46681;47.696;9.140;2023-04-24T03:22:07;13.80;63.40
60848;DHT22;46681;47.696;9.140;2023-04-24T03:24:32;13.80;63.10
60848;DHT22;46681;47.696;9.140;2023-04-24T03:26:58;13.70;63.10
60848;DHT22;46681;47.696;9.140;2023-04-24T03:29:23;13.70;63.10
60848;DHT22;46681;47.696;9.140;2023-04-24T03:31:50;13.70;62.90
60848;DHT22;46681;47.696;9.140;2023-04-24T03:34:16;13.70;63.30
60848;DHT22;46681;47.696;9.140;2023-04-24T03:36:43;13.70;63.10
60848;DHT22;46681;47.696;9.140;2023-04-24T03:39:10;13.60;63.10
60848;DHT22;46681;47.696;9.140;2023-04-24T03:41:35;13.60;63.10
60848;DHT22;46681;47.696;9.140;2023-04-24T03:44:00;13.60;63.00
60848;DHT22;46681;47.696;9.140;2023-04-24T03:46:28;13.60;63.20
60848;DHT22;46681;47.696;9.140;2023-04-24T03:48:53;13.60;63.10
60848;DHT22;46681;47.696;9.140;2023-04-24T03:51:19;13.60;63.00
60848;DHT22;46681;47.696;9.140;2023-04-24T03:53:46;13.60;62.90
60848;DHT22;46681;47.696;9.140;2023-04-24T03:56:12;13.50;63.00
60848;DHT22;46681;47.696;9.140;2023-04-24T03:58:37;13.60;63.20
60848;DHT22;46681;47.696;9.140;2023-04-24T04:01:06;13.50;63.10
60848;DHT22;46681;47.696;9.140;2023-04-24T04:03:31;13.50;62.80
60848;DHT22;46681;47.696;9.140;2023-04-24T04:05:57;13.50;63.00
60848;DHT22;46681;47.696;9.140;2023-04-24T04:08:23;13.50;63.10
60848;DHT22;46681;47.696;9.140;2023-04-24T04:10:49;13.50;62.90
60848;DHT22;46681;47.696;9.140;2023-04-24T04:13:15;13.50;62.70
60848;DHT22;46681;47.696;9.140;2023-04-24T04:15:41;13.50;62.90
60848;DHT22;46681;47.696;9.140;2023-04-24T04:18:08;13.50;63.00
60848;DHT22;46681;47.696;9.140;2023-04-24T04:20:35;13.50;62.90
60848;DHT22;46681;47.696;9.140;2023-04-24T04:23:01;13.40;62.80
60848;DHT22;46681;47.696;9.140;2023-04-24T04:25:30;13.40;62.90
60848;DHT22;46681;47.696;9.140;2023-04-24T04:27:56;13.50;63.00
60848;DHT22;46681;47.696;9.140;2023-04-24T04:30:21;13.40;62.90
60848;DHT22;46681;47.696;9.140;2023-04-24T04:32:47;13.40;62.90
60848;DHT22;46681;47.696;9.140;2023-04-24T04:35:16;13.40;62.60
60848;DHT22;46681;47.696;9.140;2023-04-24T04:37:44;13.40;62.80
60848;DHT22;46681;47.696;9.140;2023-04-24T04:40:12;13.40;62.70
60848;DHT22;46681;47.696;9.140;2023-04-24T04:42:43;13.40;62.90
60848;DHT22;46681;47.696;9.140;2023-04-24T04:45:09;13.40;62.80
60848;DHT22;46681;47.696;9.140;2023-04-24T04:47:34;13.40;62.70
60848;DHT22;46681;47.696;9.140;2023-04-24T04:50:00;13.40;62.90
60848;DHT22;46681;47.696;9.140;2023-04-24T04:52:27;13.50;64.30
60848;DHT22;46681;47.696;9.140;2023-04-24T04:54:54;13.50;63.40
60848;DHT22;46681;47.696;9.140;2023-04-24T04:57:20;13.50;63.30
60848;DHT22;46681;47.696;9.140;2023-04-24T04:59:47;13.40;63.00
60848;DHT22;46681;47.696;9.140;2023-04-24T05:02:15;13.50;63.10
60848;DHT22;46681;47.696;9.140;2023-04-24T05:04:43;13.40;63.00
60848;DHT22;46681;47.696;9.140;2023-04-24T05:07:08;13.40;63.00
60848;DHT22;46681;47.696;9.140;2023-04-24T05:09:35;13.40;62.80
60848;DHT22;46681;47.696;9.140;2023-04-24T05:12:02;13.40;62.80
60848;DHT22;46681;47.696;9.140;2023-04-24T05:14:31;13.40;62.80
60848;DHT22;46681;47.696;9.140;2023-04-24T05:16:58;13.40;62.90
60848;DHT22;46681;47.696;9.140;2023-04-24T05:19:24;13.40;63.10
60848;DHT22;46681;47.696;9.140;2023-04-24T05:21:51;13.40;63.00
60848;DHT22;46681;47.696;9.140;2023-04-24T05:24:16;13.40;62.90
60848;DHT22;46681;47.696;9.140;2023-04-24T05:26:46;13.40;62.70
60848;DHT22;46681;47.696;9.140;2023-04-24T05:29:14;13.30;62.90
60848;DHT22;46681;47.696;9.140;2023-04-24T05:31:40;13.30;62.50
60848;DHT22;46681;47.696;9.140;2023-04-24T05:34:11;13.30;64.70
60848;DHT22;46681;47.696;9.140;2023-04-24T05:36:42;13.40;65.40
60848;DHT22;46681;47.696;9.140;2023-04-24T05:39:08;13.30;64.10
60848;DHT22;46681;47.696;9.140;2023-04-24T05:41:38;13.30;64.10
60848;DHT22;46681;47.696;9.140;2023-04-24T05:44:04;13.40;64.20
60848;DHT22;46681;47.696;9.140;2023-04-24T05:46:36;13.30;63.60
60848;DHT22;46681;47.696;9.140;2023-04-24T05:49:07;13.30;63.60
60848;DHT22;46681;47.696;9.140;2023-04-24T05:51:32;13.30;63.80
60848;DHT22;46681;47.696;9.140;2023-04-24T05:53:58;13.30;63.50
60848;DHT22;46681;47.696;9.140;2023-04-24T05:56:24;13.30;63.30
60848;DHT22;46681;47.696;9.140;2023-04-24T05:58:51;13.40;63.10
60848;DHT22;46681;47.696;9.140;2023-04-24T06:01:17;13.40;63.40
60848;DHT22;46681;47.696;9.140;2023-04-24T06:03:43;13.40;63.20
60848;DHT22;46681;47.696;9.140;2023-04-24T06:06:10;13.40;63.50
60848;DHT22;46681;47.696;9.140;2023-04-24T06:08:38;13.40;63.10
60848;DHT22;46681;47.696;9.140;2023-04-24T06:11:06;13.40;62.80
60848;DHT22;46681;47.696;9.140;2023-04-24T06:13:38;13.40;63.10
60848;DHT22;46681;47.696;9.140;2023-04-24T06:16:08;13.40;62.70
60848;DHT22;46681;47.696;9.140;2023-04-24T06:18:38;13.40;62.60
60848;DHT22;46681;47.696;9.140;2023-04-24T06:21:04;13.50;62.70
60848;DHT22;46681;47.696;9.140;2023-04-24T06:23:37;13.50;62.40
60848;DHT22;46681;47.696;9.140;2023-04-24T06:26:03;13.50;62.60
60848;DHT22;46681;47.696;9.140;2023-04-24T06:28:30;13.50;62.40
60848;DHT22;46681;47.696;9.140;2023-04-24T06:30:56;13.50;62.60
60848;DHT22;46681;47.696;9.140;2023-04-24T06:33:25;13.50;62.50
60848;DHT22;46681;47.696;9.140;2023-04-24T06:35:50;13.50;62.30
60848;DHT22;46681;47.696;9.140;2023-04-24T06:38:16;13.50;62.40
60848;DHT22;46681;47.696;9.140;2023-04-24T06:40:48;13.50;62.30
60848;DHT22;46681;47.696;9.140;2023-04-24T06:43:14;13.50;62.10
60848;DHT22;46681;47.696;9.140;2023-04-24T06:45:40;13.50;62.00
60848;DHT22;46681;47.696;9.140;2023-04-24T06:48:11;13.50;61.90
60848;DHT22;46681;47.696;9.140;2023-04-24T06:50:36;13.50;61.80
60848;DHT22;46681;47.696;9.140;2023-04-24T06:53:05;13.50;61.80
60848;DHT22;46681;47.696;9.140;2023-04-24T06:55:31;13.60;62.10
60848;DHT22;46681;47.696;9.140;2023-04-24T06:57:59;13.60;62.00
60848;DHT22;46681;47.696;9.140;2023-04-24T07:00:24;13.60;61.60
60848;DHT22;46681;47.696;9.140;2023-04-24T07:02:50;13.70;61.40
60848;DHT22;46681;47.696;9.140;2023-04-24T07:05:16;13.70;61.20
60848;DHT22;46681;47.696;9.140;2023-04-24T07:07:43;13.70;61.70
60848;DHT22;46681;47.696;9.140;2023-04-24T07:10:09;13.80;61.20
60848;DHT22;46681;47.696;9.140;2023-04-24T07:12:35;13.90;60.90
60848;DHT22;46681;47.696;9.140;2023-04-24T07:15:10;13.90;60.50
60848;DHT22;46681;47.696;9.140;2023-04-24T07:17:46;14.00;60.70
60848;DHT22;46681;47.696;9.140;2023-04-24T07:20:16;14.10;60.20
60848;DHT22;46681;47.696;9.140;2023-04-24T07:22:45;14.20;60.20
60848;DHT22;46681;47.696;9.140;2023-04-24T07:25:12;14.30;59.90
60848;DHT22;46681;47.696;9.140;2023-04-24T07:27:37;14.40;59.40
60848;DHT22;46681;47.696;9.140;2023-04-24T07:30:05;14.50;59.30
60848;DHT22;46681;47.696;9.140;2023-04-24T07:32:36;14.50;59.10
60848;DHT22;46681;47.696;9.140;2023-04-24T07:35:02;14.60;58.60
60848;DHT22;46681;47.696;9.140;2023-04-24T07:37:28;14.70;58.00
60848;DHT22;46681;47.696;9.140;2023-04-24T07:39:54;14.80;58.50
60848;DHT22;46681;47.696;9.140;2023-04-24T07:42:30;15.00;58.70
60848;DHT22;46681;47.696;9.140;2023-04-24T07:45:02;15.10;57.50
60848;DHT22;46681;47.696;9.140;2023-04-24T07:47:29;15.00;57.50
60848;DHT22;46681;47.696;9.140;2023-04-24T07:50:05;15.00;58.00
60848;DHT22;46681;47.696;9.140;2023-04-24T07:52:45;14.90;57.90
60848;DHT22;46681;47.696;9.140;2023-04-24T07:55:11;14.90;57.60
60848;DHT22;46681;47.696;9.140;2023-04-24T07:57:39;14.90;57.40
60848;DHT22;46681;47.696;9.140;2023-04-24T08:00:30;15.00;57.40
60848;DHT22;46681;47.696;9.140;2023-04-24T08:02:59;14.90;57.10
60848;DHT22;46681;47.696;9.140;2023-04-24T08:05:25;14.90;57.50
60848;DHT22;46681;47.696;9.140;2023-04-24T08:07:56;14.90;57.40
60848;DHT22;46681;47.696;9.140;2023-04-24T08:10:28;14.90;57.60
60848;DHT22;46681;47.696;9.140;2023-04-24T08:13:07;14.90;57.00
60848;DHT22;46681;47.696;9.140;2023-04-24T08:15:42;14.80;56.90
60848;DHT22;46681;47.696;9.140;2023-04-24T08:18:07;14.90;57.40
60848;DHT22;46681;47.696;9.140;2023-04-24T08:20:34;14.80;57.10
60848;DHT22;46681;47.696;9.140;2023-04-24T08:23:00;14.80;56.10
60848;DHT22;46681;47.696;9.140;2023-04-24T08:25:33;14.80;56.10
60848;DHT22;46681;47.696;9.140;2023-04-24T08:28:10;14.70;56.10
60848;DHT22;46681;47.696;9.140;2023-04-24T08:30:38;14.70;56.30
60848;DHT22;46681;47.696;9.140;2023-04-24T08:33:04;14.70;56.00
60848;DHT22;46681;47.696;9.140;2023-04-24T08:35:36;14.70;56.00
60848;DHT22;46681;47.696;9.140;2023-04-24T08:38:16;14.70;55.80
60848;DHT22;46681;47.696;9.140;2023-04-24T08:40:50;14.80;55.70
60848;DHT22;46681;47.696;9.140;2023-04-24T08:43:28;14.80;55.60
60848;DHT22;46681;47.696;9.140;2023-04-24T08:46:04;14.80;55.70
60848;DHT22;46681;47.696;9.140;2023-04-24T08:48:35;14.80;55.60
60848;DHT22;46681;47.696;9.140;2023-04-24T08:51:09;14.80;55.20
60848;DHT22;46681;47.696;9.140;2023-04-24T08:53:43;14.90;55.50
60848;DHT22;46681;47.696;9.140;2023-04-24T08:56:09;14.90;54.00
60848;DHT22;46681;47.696;9.140;2023-04-24T08:58:47;15.00;54.70
60848;DHT22;46681;47.696;9.140;2023-04-24T09:01:26;15.00;54.70
60848;DHT22;46681;47.696;9.140;2023-04-24T09:04:00;15.10;54.10
60848;DHT22;46681;47.696;9.140;2023-04-24T09:06:56;15.10;53.00
60848;DHT22;46681;47.696;9.140;2023-04-24T09:09:36;15.10;54.10
60848;DHT22;46681;47.696;9.140;2023-04-24T09:12:11;15.10;54.20
60848;DHT22;46681;47.696;9.140;2023-04-24T09:14:46;15.20;53.70
60848;DHT22;46681;47.696;9.140;2023-04-24T09:17:26;15.20;53.30
60848;DHT22;46681;47.696;9.140;2023-04-24T09:19:53;15.20;53.50
60848;DHT22;46681;47.696;9.140;2023-04-24T09:22:25;15.30;51.80
60848;DHT22;46681;47.696;9.140;2023-04-24T09:25:16;15.30;52.00
60848;DHT22;46681;47.696;9.140;2023-04-24T09:27:53;15.40;51.60
60848;DHT22;46681;47.696;9.140;2023-04-24T09:30:28;15.50;51.70
60848;DHT22;46681;47.696;9.140;2023-04-24T09:33:25;15.40;52.10
60848;DHT22;46681;47.696;9.140;2023-04-24T09:35:59;15.50;51.20
60848;DHT22;46681;47.696;9.140;2023-04-24T09:38:44;15.60;50.60
60848;DHT22;46681;47.696;9.140;2023-04-24T09:41:17;15.60;50.30
60848;DHT22;46681;47.696;9.140;2023-04-24T09:44:26;15.70;50.00
60848;DHT22;46681;47.696;9.140;2023-04-24T09:47:00;15.90;49.30
60848;DHT22;46681;47.696;9.140;2023-04-24T09:49:31;16.00;50.20
60848;DHT22;46681;47.696;9.140;2023-04-24T09:52:20;16.20;49.70
60848;DHT22;46681;47.696;9.140;2023-04-24T09:55:10;16.40;49.60
60848;DHT22;46681;47.696;9.140;2023-04-24T09:57:54;16.60;49.60
60848;DHT22;46681;47.696;9.140;2023-04-24T10:00:42;16.90;48.40
60848;DHT22;46681;47.696;9.140;2023-04-24T10:03:33;17.10;48.50
60848;DHT22;46681;47.696;9.140;2023-04-24T10:06:18;17.30;48.50
60848;DHT22;46681;47.696;9.140;2023-04-24T10:08:51;17.60;48.40
60848;DHT22;46681;47.696;9.140;2023-04-24T10:11:23;17.80;47.50
60848;DHT22;46681;47.696;9.140;2023-04-24T10:14:05;17.90;47.90
60848;DHT22;46681;47.696;9.140;2023-04-24T10:16:37;17.80;46.00
60848;DHT22;46681;47.696;9.140;2023-04-24T10:19:04;17.90;46.70
60848;DHT22;46681;47.696;9.140;2023-04-24T10:21:38;17.80;45.10
60848;DHT22;46681;47.696;9.140;2023-04-24T10:24:26;17.80;44.30
60848;DHT22;46681;47.696;9.140;2023-04-24T10:27:02;17.60;44.70
60848;DHT22;46681;47.696;9.140;2023-04-24T10:29:35;17.50;44.60
60848;DHT22;46681;47.696;9.140;2023-04-24T10:32:23;17.40;44.90
60848;DHT22;46681;47.696;9.140;2023-04-24T10:34:51;17.30;45.90
60848;DHT22;46681;47.696;9.140;2023-04-24T10:37:22;17.20;46.40
60848;DHT22;46681;47.696;9.140;2023-04-24T10:40:31;17.10;46.30
60848;DHT22;46681;47.696;9.140;2023-04-24T10:43:05;17.00;45.50
60848;DHT22;46681;47.696;9.140;2023-04-24T10:45:37;16.90;44.80
60848;DHT22;46681;47.696;9.140;2023-04-24T10:48:19;17.10;44.60
60848;DHT22;46681;47.696;9.140;2023-04-24T10:51:23;17.30;44.60
60848;DHT22;46681;47.696;9.140;2023-04-24T10:54:36;17.40;43.00
60848;DHT22;46681;47.696;9.140;2023-04-24T11:00:56;18.10;45.50
60848;DHT22;46681;47.696;9.140;2023-04-24T11:06:44;18.80;44.70
60848;DHT22;46681;47.696;9.140;2023-04-24T11:09:15;18.90;44.90
60848;DHT22;46681;47.696;9.140;2023-04-24T11:15:04;19.30;45.00
60848;DHT22;46681;47.696;9.140;2023-04-24T11:17:42;19.50;45.00
60848;DHT22;46681;47.696;9.140;2023-04-24T11:20:30;19.40;45.20
60848;DHT22;46681;47.696;9.140;2023-04-24T11:23:03;19.50;45.30
60848;DHT22;46681;47.696;9.140;2023-04-24T11:25:36;19.50;45.30
60848;DHT22;46681;47.696;9.140;2023-04-24T11:28:21;19.40;45.20
60848;DHT22;46681;47.696;9.140;2023-04-24T11:36:37;18.90;43.90
60848;DHT22;46681;47.696;9.140;2023-04-24T11:39:19;18.80;44.00
60848;DHT22;46681;47.696;9.140;2023-04-24T11:41:49;18.70;42.30
60848;DHT22;46681;47.696;9.140;2023-04-24T11:47:32;18.70;41.70
60848;DHT22;46681;47.696;9.140;2023-04-24T11:50:17;18.70;41.00
60848;DHT22;46681;47.696;9.140;2023-04-24T11:52:57;18.80;42.00
60848;DHT22;46681;47.696;9.140;2023-04-24T11:55:27;19.20;44.30
60848;DHT22;46681;47.696;9.140;2023-04-24T11:57:58;19.30;43.30
60848;DHT22;46681;47.696;9.140;2023-04-24T12:00:55;19.50;44.00
60848;DHT22;46681;47.696;9.140;2023-04-24T12:03:23;19.60;42.30
60848;DHT22;46681;47.696;9.140;2023-04-24T12:05:52;19.60;41.30
60848;DHT22;46681;47.696;9.140;2023-04-24T12:08:40;19.80;43.40
60848;DHT22;46681;47.696;9.140;2023-04-24T12:11:16;19.90;43.40
60848;DHT22;46681;47.696;9.140;2023-04-24T12:14:09;19.90;42.70
60848;DHT22;46681;47.696;9.140;2023-04-24T12:17:01;19.80;43.00
60848;DHT22;46681;47.696;9.140;2023-04-24T12:19:36;19.80;42.80
60848;DHT22;46681;47.696;9.140;2023-04-24T12:22:15;20.00;43.60
60848;DHT22;46681;47.696;9.140;2023-04-24T12:25:09;20.10;43.30
60848;DHT22;46681;47.696;9.140;2023-04-24T12:28:08;20.30;42.70
60848;DHT22;46681;47.696;9.140;2023-04-24T12:30:48;20.30;42.40
60848;DHT22;46681;47.696;9.140;2023-04-24T12:33:25;20.20;41.70
60848;DHT22;46681;47.696;9.140;2023-04-24T12:35:55;20.10;42.00
60848;DHT22;46681;47.696;9.140;2023-04-24T12:38:39;19.80;39.80
60848;DHT22;46681;47.696;9.140;2023-04-24T12:41:11;19.60;40.20
60848;DHT22;46681;47.696;9.140;2023-04-24T12:43:38;19.60;40.50
60848;DHT22;46681;47.696;9.140;2023-04-24T12:46:12;19.50;41.20
60848;DHT22;46681;47.696;9.140;2023-04-24T12:51:36;19.70;43.70
60848;DHT22;46681;47.696;9.140;2023-04-24T12:54:17;19.80;43.40
60848;DHT22;46681;47.696;9.140;2023-04-24T12:56:50;20.00;43.70
60848;DHT22;46681;47.696;9.140;2023-04-24T12:59:22;20.20;43.90
60848;DHT22;46681;47.696;9.140;2023-04-24T13:01:55;20.40;43.60
60848;DHT22;46681;47.696;9.140;2023-04-24T13:04:45;20.70;43.40
60848;DHT22;46681;47.696;9.140;2023-04-24T13:07:31;20.90;42.80
60848;DHT22;46681;47.696;9.140;2023-04-24T13:10:34;20.90;43.10
60848;DHT22;46681;47.696;9.140;2023-04-24T13:13:35;21.30;42.20
60848;DHT22;46681;47.696;9.140;2023-04-24T13:16:11;21.10;42.60
60848;DHT22;46681;47.696;9.140;2023-04-24T13:18:42;21.00;41.70
60848;DHT22;46681;47.696;9.140;2023-04-24T13:21:29;20.90;42.30
60848;DHT22;46681;47.696;9.140;2023-04-24T13:24:02;20.80;41.00
60848;DHT22;46681;47.696;9.140;2023-04-24T13:26:47;20.80;42.20
60848;DHT22;46681;47.696;9.140;2023-04-24T13:29:14;20.80;42.70
60848;DHT22;46681;47.696;9.140;2023-04-24T13:31:47;20.80;42.20
60848;DHT22;46681;47.696;9.140;2023-04-24T13:34:32;20.90;42.90
60848;DHT22;46681;47.696;9.140;2023-04-24T13:37:07;21.00;43.00
60848;DHT22;46681;47.696;9.140;2023-04-24T13:39:36;20.90;42.80
60848;DHT22;46681;47.696;9.140;2023-04-24T13:42:03;20.90;42.40
60848;DHT22;46681;47.696;9.140;2023-04-24T13:44:39;20.90;43.20
60848;DHT22;46681;47.696;9.140;2023-04-24T13:47:06;20.90;41.70
60848;DHT22;46681;47.696;9.140;2023-04-24T13:49:46;21.10;42.90
60848;DHT22;46681;47.696;9.140;2023-04-24T13:55:45;21.40;41.90
60848;DHT22;46681;47.696;9.140;2023-04-24T13:58:22;21.50;42.80
60848;DHT22;46681;47.696;9.140;2023-04-24T14:01:11;21.60;42.00
60848;DHT22;46681;47.696;9.140;2023-04-24T14:03:56;21.60;41.10
60848;DHT22;46681;47.696;9.140;2023-04-24T14:06:34;21.60;40.80
60848;DHT22;46681;47.696;9.140;2023-04-24T14:09:17;21.50;40.90
60848;DHT22;46681;47.696;9.140;2023-04-24T14:11:57;21.40;41.30
60848;DHT22;46681;47.696;9.140;2023-04-24T14:14:34;21.20;40.80
60848;DHT22;46681;47.696;9.140;2023-04-24T14:17:34;21.10;41.00
60848;DHT22;46681;47.696;9.140;2023-04-24T14:20:31;21.10;40.10
60848;DHT22;46681;47.696;9.140;2023-04-24T14:23:19;20.90;38.90
60848;DHT22;46681;47.696;9.140;2023-04-24T14:25:45;20.70;38.80
60848;DHT22;46681;47.696;9.140;2023-04-24T14:28:23;20.60;39.20
60848;DHT22;46681;47.696;9.140;2023-04-24T14:31:05;20.50;39.70
60848;DHT22;46681;47.696;9.140;2023-04-24T14:33:56;20.40;40.60
60848;DHT22;46681;47.696;9.140;2023-04-24T14:36:23;20.30;40.00
60848;DHT22;46681;47.696;9.140;2023-04-24T14:38:55;20.20;40.20
60848;DHT22;46681;47.696;9.140;2023-04-24T14:41:43;20.40;40.90
60848;DHT22;46681;47.696;9.140;2023-04-24T14:44:12;20.50;40.60
60848;DHT22;46681;47.696;9.140;2023-04-24T14:46:41;20.60;38.90
60848;DHT22;46681;47.696;9.140;2023-04-24T14:49:15;20.60;40.40
60848;DHT22;46681;47.696;9.140;2023-04-24T14:51:50;20.70;39.50
60848;DHT22;46681;47.696;9.140;2023-04-24T14:54:16;20.70;39.70
60848;DHT22;46681;47.696;9.140;2023-04-24T14:56:47;20.80;39.90
60848;DHT22;46681;47.696;9.140;2023-04-24T14:59:16;20.70;39.30
60848;DHT22;46681;47.696;9.140;2023-04-24T15:01:49;20.60;39.30
60848;DHT22;46681;47.696;9.140;2023-04-24T15:04:17;20.60;39.60
60848;DHT22;46681;47.696;9.140;2023-04-24T15:06:48;20.50;39.50
60848;DHT22;46681;47.696;9.140;2023-04-24T15:09:14;20.50;39.20
60848;DHT22;46681;47.696;9.140;2023-04-24T15:11:47;20.40;39.00
60848;DHT22;46681;47.696;9.140;2023-04-24T15:14:12;20.30;39.20
60848;DHT22;46681;47.696;9.140;2023-04-24T15:16:40;20.20;39.60
60848;DHT22;46681;47.696;9.140;2023-04-24T15:19:11;20.10;40.00
60848;DHT22;46681;47.696;9.140;2023-04-24T15:21:37;20.10;39.60
60848;DHT22;46681;47.696;9.140;2023-04-24T15:24:14;20.00;39.80
60848;DHT22;46681;47.696;9.140;2023-04-24T15:26:52;20.10;40.20
60848;DHT22;46681;47.696;9.140;2023-04-24T15:29:21;20.10;39.90
60848;DHT22;46681;47.696;9.140;2023-04-24T15:31:48;20.10;39.60
60848;DHT22;46681;47.696;9.140;2023-04-24T15:34:23;20.10;39.90
60848;DHT22;46681;47.696;9.140;2023-04-24T15:37:00;20.10;40.20
60848;DHT22;46681;47.696;9.140;2023-04-24T15:39:44;20.20;40.00
60848;DHT22;46681;47.696;9.140;2023-04-24T15:42:13;20.10;39.80
60848;DHT22;46681;47.696;9.140;2023-04-24T15:44:40;20.10;39.90
60848;DHT22;46681;47.696;9.140;2023-04-24T15:50:11;20.10;40.40
60848;DHT22;46681;47.696;9.140;2023-04-24T15:52:45;20.00;40.50
60848;DHT22;46681;47.696;9.140;2023-04-24T15:55:27;20.00;40.40
60848;DHT22;46681;47.696;9.140;2023-04-24T15:57:56;20.00;40.60
60848;DHT22;46681;47.696;9.140;2023-04-24T16:00:31;19.90;41.10
60848;DHT22;46681;47.696;9.140;2023-04-24T16:03:12;19.90;40.90
60848;DHT22;46681;47.696;9.140;2023-04-24T16:05:45;19.80;41.10
60848;DHT22;46681;47.696;9.140;2023-04-24T16:08:20;19.80;41.30
60848;DHT22;46681;47.696;9.140;2023-04-24T16:10:51;19.70;41.30
60848;DHT22;46681;47.696;9.140;2023-04-24T16:13:18;19.70;41.40
60848;DHT22;46681;47.696;9.140;2023-04-24T16:15:44;19.60;41.10
60848;DHT22;46681;47.696;9.140;2023-04-24T16:18:12;19.60;41.20
60848;DHT22;46681;47.696;9.140;2023-04-24T16:20:37;19.50;42.10
60848;DHT22;46681;47.696;9.140;2023-04-24T16:23:03;19.50;41.80
60848;DHT22;46681;47.696;9.140;2023-04-24T16:25:34;19.40;41.60
60848;DHT22;46681;47.696;9.140;2023-04-24T16:28:06;19.40;42.60